Inwood, Indiana
Current Conditions -  °F | °C
As of 11:35 PM on Wednesday 22 Oct 2014 (Local Time) from KOXI Reporting Station
Overcast Overcast  
Wind Chill: 35°   Ceiling: 700
Heat Index: 35°   Visibility: 1mi
Dew Point: 33°   Wind: 0mph
Humidity: 92%   Direction: NA
Pressure: 30.28"   Gusts: NA
Location:  41.3572°N, 86.3281°W
Report Text: KOXI 230335Z AUTO 00000KT 1SM VV007 02/01 A3028 RMK AO1 T00160005
Loading
Personal Weather Stations






























Interactive Weather Map New forecast layout! Learn more

10-Day Weather Forecast

Advertisements
Track Severe Weather on mobile